sensor_id;sensor_type;location;lat;lon;timestamp;pressure;altitude;pressure_sealevel;temperature;humidity
78459;BME280;67753;42.684;23.330;2023-02-21T00:01:36;95362.69;;;4.38;69.23
78459;BME280;67753;42.684;23.330;2023-02-21T00:03:55;95367.03;;;4.33;69.21
78459;BME280;67753;42.684;23.330;2023-02-21T00:06:14;95368.00;;;4.38;69.44
78459;BME280;67753;42.684;23.330;2023-02-21T00:08:39;95362.94;;;4.27;69.82
78459;BME280;67753;42.684;23.330;2023-02-21T00:10:59;95359.22;;;4.28;69.68
78459;BME280;67753;42.684;23.330;2023-02-21T00:13:18;95361.56;;;4.30;70.12
78459;BME280;67753;42.684;23.330;2023-02-21T00:15:37;95360.78;;;4.29;69.72
78459;BME280;67753;42.684;23.330;2023-02-21T00:17:56;95356.66;;;4.23;70.12
78459;BME280;67753;42.684;23.330;2023-02-21T00:20:16;95369.69;;;4.33;69.75
78459;BME280;67753;42.684;23.330;2023-02-21T00:22:35;95362.78;;;4.24;69.56
78459;BME280;67753;42.684;23.330;2023-02-21T00:24:55;95360.78;;;4.29;69.94
78459;BME280;67753;42.684;23.330;2023-02-21T00:27:15;95350.63;;;4.31;69.62
78459;BME280;67753;42.684;23.330;2023-02-21T00:29:34;95357.03;;;4.30;69.83
78459;BME280;67753;42.684;23.330;2023-02-21T00:31:54;95348.59;;;4.28;69.48
78459;BME280;67753;42.684;23.330;2023-02-21T00:34:13;95348.72;;;4.23;69.66
78459;BME280;67753;42.684;23.330;2023-02-21T00:36:33;95351.84;;;4.25;69.85
78459;BME280;67753;42.684;23.330;2023-02-21T00:38:52;95347.97;;;4.31;69.67
78459;BME280;67753;42.684;23.330;2023-02-21T00:41:12;95344.72;;;4.34;69.67
78459;BME280;67753;42.684;23.330;2023-02-21T00:43:33;95348.84;;;4.18;70.20
78459;BME280;67753;42.684;23.330;2023-02-21T00:45:53;95343.38;;;4.15;69.92
78459;BME280;67753;42.684;23.330;2023-02-21T00:48:12;95339.56;;;4.29;70.00
78459;BME280;67753;42.684;23.330;2023-02-21T00:50:37;95340.97;;;4.35;69.89
78459;BME280;67753;42.684;23.330;2023-02-21T00:52:56;95340.53;;;4.33;69.71
78459;BME280;67753;42.684;23.330;2023-02-21T00:55:17;95328.94;;;4.29;69.80
78459;BME280;67753;42.684;23.330;2023-02-21T00:57:38;95322.09;;;4.28;69.90
78459;BME280;67753;42.684;23.330;2023-02-21T00:59:57;95311.19;;;4.39;69.83
78459;BME280;67753;42.684;23.330;2023-02-21T01:02:17;95319.03;;;4.44;69.47
78459;BME280;67753;42.684;23.330;2023-02-21T01:04:37;95314.59;;;4.30;69.73
78459;BME280;67753;42.684;23.330;2023-02-21T01:06:56;95306.81;;;4.34;69.76
78459;BME280;67753;42.684;23.330;2023-02-21T01:09:15;95299.59;;;4.26;69.97
78459;BME280;67753;42.684;23.330;2023-02-21T01:11:33;95299.47;;;4.31;69.98
78459;BME280;67753;42.684;23.330;2023-02-21T01:13:54;95304.47;;;4.41;70.00
78459;BME280;67753;42.684;23.330;2023-02-21T01:16:14;95293.44;;;4.48;69.84
78459;BME280;67753;42.684;23.330;2023-02-21T01:18:33;95292.00;;;4.42;69.84
78459;BME280;67753;42.684;23.330;2023-02-21T01:20:52;95280.31;;;4.43;70.07
78459;BME280;67753;42.684;23.330;2023-02-21T01:23:12;95274.38;;;4.46;69.74
78459;BME280;67753;42.684;23.330;2023-02-21T01:25:32;95280.63;;;4.50;69.70
78459;BME280;67753;42.684;23.330;2023-02-21T01:27:52;95277.50;;;4.39;69.81
78459;BME280;67753;42.684;23.330;2023-02-21T01:30:13;95271.59;;;4.51;69.96
78459;BME280;67753;42.684;23.330;2023-02-21T01:32:32;95276.28;;;4.54;69.52
78459;BME280;67753;42.684;23.330;2023-02-21T01:34:52;95273.91;;;4.44;69.45
78459;BME280;67753;42.684;23.330;2023-02-21T01:37:11;95277.81;;;4.38;69.77
78459;BME280;67753;42.684;23.330;2023-02-21T01:39:30;95269.84;;;4.38;69.60
78459;BME280;67753;42.684;23.330;2023-02-21T01:41:49;95279.22;;;4.44;69.82
78459;BME280;67753;42.684;23.330;2023-02-21T01:44:28;95275.97;;;4.55;69.59
78459;BME280;67753;42.684;23.330;2023-02-21T01:46:50;95273.28;;;4.47;69.94
78459;BME280;67753;42.684;23.330;2023-02-21T01:49:12;95266.59;;;4.49;69.86
78459;BME280;67753;42.684;23.330;2023-02-21T01:51:36;95265.81;;;4.49;69.81
78459;BME280;67753;42.684;23.330;2023-02-21T01:53:57;95260.97;;;4.51;69.67
78459;BME280;67753;42.684;23.330;2023-02-21T01:56:17;95260.97;;;4.51;69.54
78459;BME280;67753;42.684;23.330;2023-02-21T01:58:36;95248.97;;;4.53;69.48
78459;BME280;67753;42.684;23.330;2023-02-21T02:00:56;95249.47;;;4.64;69.62
78459;BME280;67753;42.684;23.330;2023-02-21T02:03:18;95251.16;;;4.60;69.59
78459;BME280;67753;42.684;23.330;2023-02-21T02:05:39;95251.03;;;4.56;69.63
78459;BME280;67753;42.684;23.330;2023-02-21T02:07:59;95247.84;;;4.46;69.57
78459;BME280;67753;42.684;23.330;2023-02-21T02:10:20;95236.78;;;4.44;69.72
78459;BME280;67753;42.684;23.330;2023-02-21T02:12:53;95237.25;;;4.46;69.75
78459;BME280;67753;42.684;23.330;2023-02-21T02:17:22;95226.03;;;4.49;70.35
78459;BME280;67753;42.684;23.330;2023-02-21T02:25:07;95232.56;;;4.43;69.61
78459;BME280;67753;42.684;23.330;2023-02-21T02:27:39;95223.53;;;4.61;69.67
78459;BME280;67753;42.684;23.330;2023-02-21T02:32:38;95223.81;;;4.51;69.44
78459;BME280;67753;42.684;23.330;2023-02-21T02:34:52;95214.81;;;4.52;70.02
78459;BME280;67753;42.684;23.330;2023-02-21T02:37:03;95217.94;;;4.63;69.37
78459;BME280;67753;42.684;23.330;2023-02-21T02:39:17;95222.63;;;4.57;69.45
78459;BME280;67753;42.684;23.330;2023-02-21T02:41:28;95221.03;;;4.56;69.42
78459;BME280;67753;42.684;23.330;2023-02-21T02:43:38;95227.13;;;4.56;69.76
78459;BME280;67753;42.684;23.330;2023-02-21T02:45:45;95225.41;;;4.52;69.49
78459;BME280;67753;42.684;23.330;2023-02-21T02:48:02;95211.34;;;4.43;69.31
78459;BME280;67753;42.684;23.330;2023-02-21T02:50:08;95223.50;;;4.44;69.61
78459;BME280;67753;42.684;23.330;2023-02-21T02:52:11;95220.72;;;4.49;69.97
78459;BME280;67753;42.684;23.330;2023-02-21T02:54:13;95227.25;;;4.43;70.04
78459;BME280;67753;42.684;23.330;2023-02-21T02:56:16;95214.59;;;4.40;69.83
78459;BME280;67753;42.684;23.330;2023-02-21T02:58:19;95213.06;;;4.39;70.28
78459;BME280;67753;42.684;23.330;2023-02-21T03:00:23;95216.81;;;4.38;70.19
78459;BME280;67753;42.684;23.330;2023-02-21T03:02:46;95214.75;;;4.34;69.96
78459;BME280;67753;42.684;23.330;2023-02-21T03:05:09;95215.34;;;4.31;70.33
78459;BME280;67753;42.684;23.330;2023-02-21T03:07:20;95212.25;;;4.29;70.20
78459;BME280;67753;42.684;23.330;2023-02-21T03:09:30;95213.81;;;4.30;70.13
78459;BME280;67753;42.684;23.330;2023-02-21T03:11:40;95216.31;;;4.35;70.13
78459;BME280;67753;42.684;23.330;2023-02-21T03:13:48;95216.47;;;4.30;70.01
78459;BME280;67753;42.684;23.330;2023-02-21T03:15:55;95225.97;;;4.31;70.07
78459;BME280;67753;42.684;23.330;2023-02-21T03:18:03;95213.03;;;4.30;70.08
78459;BME280;67753;42.684;23.330;2023-02-21T03:20:12;95218.50;;;4.33;70.13
78459;BME280;67753;42.684;23.330;2023-02-21T03:22:18;95208.16;;;4.23;69.94
78459;BME280;67753;42.684;23.330;2023-02-21T03:24:22;95211.91;;;4.22;70.26
78459;BME280;67753;42.684;23.330;2023-02-21T03:26:25;95201.28;;;4.22;70.12
78459;BME280;67753;42.684;23.330;2023-02-21T03:28:28;95201.75;;;4.16;70.21
78459;BME280;67753;42.684;23.330;2023-02-21T03:30:32;95200.66;;;4.17;70.63
78459;BME280;67753;42.684;23.330;2023-02-21T03:32:37;95200.66;;;4.17;70.92
78459;BME280;67753;42.684;23.330;2023-02-21T03:34:43;95194.88;;;4.06;70.68
78459;BME280;67753;42.684;23.330;2023-02-21T03:36:48;95203.13;;;4.13;70.86
78459;BME280;67753;42.684;23.330;2023-02-21T03:38:50;95187.53;;;4.12;71.11
78459;BME280;67753;42.684;23.330;2023-02-21T03:40:51;95204.38;;;4.07;70.64
78459;BME280;67753;42.684;23.330;2023-02-21T03:42:55;95197.03;;;4.04;71.01
78459;BME280;67753;42.684;23.330;2023-02-21T03:44:57;95197.47;;;3.97;70.99
78459;BME280;67753;42.684;23.330;2023-02-21T03:46:59;95201.69;;;3.98;71.32
78459;BME280;67753;42.684;23.330;2023-02-21T03:49:01;95204.03;;;4.00;71.37
78459;BME280;67753;42.684;23.330;2023-02-21T03:51:04;95207.78;;;3.99;71.23
78459;BME280;67753;42.684;23.330;2023-02-21T03:53:08;95217.09;;;3.88;71.65
78459;BME280;67753;42.684;23.330;2023-02-21T03:55:10;95210.31;;;3.73;71.58
78459;BME280;67753;42.684;23.330;2023-02-21T03:57:17;95220.47;;;3.79;71.89
78459;BME280;67753;42.684;23.330;2023-02-21T03:59:18;95211.41;;;3.72;71.95
78459;BME280;67753;42.684;23.330;2023-02-21T04:01:20;95211.09;;;3.73;71.79
78459;BME280;67753;42.684;23.330;2023-02-21T04:03:22;95225.09;;;3.65;71.66
78459;BME280;67753;42.684;23.330;2023-02-21T04:05:24;95223.72;;;3.68;71.73
78459;BME280;67753;42.684;23.330;2023-02-21T04:07:26;95218.09;;;3.69;71.63
78459;BME280;67753;42.684;23.330;2023-02-21T04:09:30;95227.72;;;3.65;72.09
78459;BME280;67753;42.684;23.330;2023-02-21T04:11:31;95224.47;;;3.68;72.08
78459;BME280;67753;42.684;23.330;2023-02-21T04:13:34;95219.44;;;3.58;71.94
78459;BME280;67753;42.684;23.330;2023-02-21T04:15:36;95223.94;;;3.57;72.60
78459;BME280;67753;42.684;23.330;2023-02-21T04:17:37;95228.50;;;3.66;72.63
78459;BME280;67753;42.684;23.330;2023-02-21T04:19:39;95222.56;;;3.60;72.27
78459;BME280;67753;42.684;23.330;2023-02-21T04:21:41;95226.78;;;3.61;72.65
78459;BME280;67753;42.684;23.330;2023-02-21T04:23:43;95238.78;;;3.58;72.07
78459;BME280;67753;42.684;23.330;2023-02-21T04:25:47;95238.28;;;3.56;72.67
78459;BME280;67753;42.684;23.330;2023-02-21T04:27:49;95241.97;;;3.47;72.76
78459;BME280;67753;42.684;23.330;2023-02-21T04:29:50;95236.78;;;3.42;72.75
78459;BME280;67753;42.684;23.330;2023-02-21T04:31:52;95242.09;;;3.42;73.05
78459;BME280;67753;42.684;23.330;2023-02-21T04:33:55;95253.59;;;3.37;73.03
78459;BME280;67753;42.684;23.330;2023-02-21T04:35:57;95252.69;;;3.42;72.74
78459;BME280;67753;42.684;23.330;2023-02-21T04:37:59;95248.94;;;3.43;72.77
78459;BME280;67753;42.684;23.330;2023-02-21T04:40:01;95250.63;;;3.39;72.80
78459;BME280;67753;42.684;23.330;2023-02-21T04:42:06;95247.38;;;3.42;73.34
78459;BME280;67753;42.684;23.330;2023-02-21T04:44:08;95252.69;;;3.42;73.58
78459;BME280;67753;42.684;23.330;2023-02-21T04:46:11;95249.19;;;3.32;73.31
78459;BME280;67753;42.684;23.330;2023-02-21T04:48:15;95240.78;;;3.30;73.81
78459;BME280;67753;42.684;23.330;2023-02-21T04:50:19;95245.63;;;3.37;73.97
78459;BME280;67753;42.684;23.330;2023-02-21T04:52:21;95236.78;;;3.42;73.72
78459;BME280;67753;42.684;23.330;2023-02-21T04:54:23;95239.22;;;3.29;73.79
78459;BME280;67753;42.684;23.330;2023-02-21T04:56:25;95239.81;;;3.26;74.17
78459;BME280;67753;42.684;23.330;2023-02-21T04:58:30;95233.31;;;3.32;73.73
78459;BME280;67753;42.684;23.330;2023-02-21T05:00:32;95227.59;;;3.39;73.53
78459;BME280;67753;42.684;23.330;2023-02-21T05:02:34;95229.56;;;3.33;73.61
78459;BME280;67753;42.684;23.330;2023-02-21T05:04:36;95216.94;;;3.30;74.06
78459;BME280;67753;42.684;23.330;2023-02-21T05:06:38;95221.75;;;3.28;74.15
78459;BME280;67753;42.684;23.330;2023-02-21T05:08:40;95222.59;;;3.38;74.32
78459;BME280;67753;42.684;23.330;2023-02-21T05:10:43;95224.97;;;3.48;74.09
78459;BME280;67753;42.684;23.330;2023-02-21T05:12:46;95211.72;;;3.39;74.28
78459;BME280;67753;42.684;23.330;2023-02-21T05:14:49;95207.31;;;3.35;74.27
78459;BME280;67753;42.684;23.330;2023-02-21T05:16:51;95214.03;;;3.41;73.92
78459;BME280;67753;42.684;23.330;2023-02-21T05:18:53;95204.53;;;3.40;73.99
78459;BME280;67753;42.684;23.330;2023-02-21T05:20:55;95207.53;;;3.47;74.26
78459;BME280;67753;42.684;23.330;2023-02-21T05:22:56;95210.03;;;3.52;74.16
78459;BME280;67753;42.684;23.330;2023-02-21T05:24:58;95200.66;;;3.46;74.09
78459;BME280;67753;42.684;23.330;2023-02-21T05:27:00;95206.28;;;3.44;74.13
78459;BME280;67753;42.684;23.330;2023-02-21T05:29:03;95208.50;;;3.51;74.11
78459;BME280;67753;42.684;23.330;2023-02-21T05:31:07;95205.38;;;3.49;74.00
78459;BME280;67753;42.684;23.330;2023-02-21T05:33:09;95208.03;;;3.49;74.04
78459;BME280;67753;42.684;23.330;2023-02-21T05:35:13;95201.97;;;3.57;73.80
78459;BME280;67753;42.684;23.330;2023-02-21T05:37:16;95209.19;;;3.65;73.42
78459;BME280;67753;42.684;23.330;2023-02-21T05:39:20;95213.88;;;3.68;73.38
78459;BME280;67753;42.684;23.330;2023-02-21T05:41:22;95221.06;;;3.76;73.04
78459;BME280;67753;42.684;23.330;2023-02-21T05:43:24;95224.56;;;3.85;72.61
78459;BME280;67753;42.684;23.330;2023-02-21T05:45:26;95231.91;;;3.89;72.16
78459;BME280;67753;42.684;23.330;2023-02-21T05:47:29;95220.47;;;3.79;71.92
78459;BME280;67753;42.684;23.330;2023-02-21T05:49:30;95239.66;;;3.85;71.80
78459;BME280;67753;42.684;23.330;2023-02-21T05:51:33;95237.34;;;3.83;71.79
78459;BME280;67753;42.684;23.330;2023-02-21T05:53:36;95223.34;;;3.92;71.84
78459;BME280;67753;42.684;23.330;2023-02-21T05:55:40;95237.69;;;3.91;71.78
78459;BME280;67753;42.684;23.330;2023-02-21T05:57:42;95235.59;;;4.10;71.48
78459;BME280;67753;42.684;23.330;2023-02-21T05:59:45;95243.88;;;4.17;71.37
78459;BME280;67753;42.684;23.330;2023-02-21T06:01:49;95241.84;;;4.14;71.22
78459;BME280;67753;42.684;23.330;2023-02-21T06:03:53;95236.88;;;4.21;71.07
78459;BME280;67753;42.684;23.330;2023-02-21T06:05:55;95253.44;;;4.35;70.73
78459;BME280;67753;42.684;23.330;2023-02-21T06:07:58;95247.53;;;4.39;70.61
78459;BME280;67753;42.684;23.330;2023-02-21T06:10:00;95257.25;;;4.52;70.46
78459;BME280;67753;42.684;23.330;2023-02-21T06:12:02;95259.41;;;4.50;70.08
78459;BME280;67753;42.684;23.330;2023-02-21T06:14:05;95252.09;;;4.55;70.36
78459;BME280;67753;42.684;23.330;2023-02-21T06:16:07;95254.09;;;4.50;70.16
78459;BME280;67753;42.684;23.330;2023-02-21T06:18:11;95250.69;;;4.58;68.90
78459;BME280;67753;42.684;23.330;2023-02-21T06:20:15;95253.22;;;4.63;69.53
78459;BME280;67753;42.684;23.330;2023-02-21T06:22:17;95243.53;;;4.67;68.83
78459;BME280;67753;42.684;23.330;2023-02-21T06:24:19;95248.84;;;4.84;67.67
78459;BME280;67753;42.684;23.330;2023-02-21T06:26:25;95252.31;;;4.94;68.01
78459;BME280;67753;42.684;23.330;2023-02-21T06:28:28;95248.09;;;5.01;67.66
78459;BME280;67753;42.684;23.330;2023-02-21T06:30:30;95252.94;;;5.08;67.04
78459;BME280;67753;42.684;23.330;2023-02-21T06:32:33;95256.69;;;5.24;65.40
78459;BME280;67753;42.684;23.330;2023-02-21T06:34:34;95258.41;;;5.29;65.30
78459;BME280;67753;42.684;23.330;2023-02-21T06:36:38;95261.06;;;5.37;64.81
78459;BME280;67753;42.684;23.330;2023-02-21T06:38:40;95260.44;;;5.41;64.80
78459;BME280;67753;42.684;23.330;2023-02-21T06:40:44;95261.84;;;5.47;64.68
78459;BME280;67753;42.684;23.330;2023-02-21T06:42:46;95254.16;;;5.54;63.99
78459;BME280;67753;42.684;23.330;2023-02-21T06:44:48;95253.22;;;5.67;63.58
78459;BME280;67753;42.684;23.330;2023-02-21T06:46:50;95261.50;;;5.74;63.75
78459;BME280;67753;42.684;23.330;2023-02-21T06:48:54;95265.72;;;5.75;63.48
78459;BME280;67753;42.684;23.330;2023-02-21T06:50:55;95261.31;;;5.79;63.47
78459;BME280;67753;42.684;23.330;2023-02-21T06:52:59;95261.59;;;5.86;63.39
78459;BME280;67753;42.684;23.330;2023-02-21T06:55:01;95253.00;;;5.89;63.30
78459;BME280;67753;42.684;23.330;2023-02-21T06:57:02;95257.56;;;5.98;62.84
78459;BME280;67753;42.684;23.330;2023-02-21T06:59:05;95260.94;;;6.07;62.56
78459;BME280;67753;42.684;23.330;2023-02-21T07:01:07;95256.69;;;6.14;62.25
78459;BME280;67753;42.684;23.330;2023-02-21T07:03:09;95264.03;;;6.26;62.12
78459;BME280;67753;42.684;23.330;2023-02-21T07:05:11;95256.34;;;6.25;62.23
78459;BME280;67753;42.684;23.330;2023-02-21T07:07:15;95256.31;;;6.33;61.77
78459;BME280;67753;42.684;23.330;2023-02-21T07:09:18;95256.41;;;6.46;61.80
78459;BME280;67753;42.684;23.330;2023-02-21T07:11:20;95259.09;;;6.46;62.14
78459;BME280;67753;42.684;23.330;2023-02-21T07:13:23;95262.94;;;6.57;61.85
78459;BME280;67753;42.684;23.330;2023-02-21T07:15:26;95267.09;;;6.66;61.62
78459;BME280;67753;42.684;23.330;2023-02-21T07:17:29;95266.09;;;6.80;61.49
78459;BME280;67753;42.684;23.330;2023-02-21T07:19:31;95263.88;;;6.82;61.22
78459;BME280;67753;42.684;23.330;2023-02-21T07:21:33;95261.50;;;6.89;60.90
78459;BME280;67753;42.684;23.330;2023-02-21T07:23:35;95261.16;;;6.90;61.00
78459;BME280;67753;42.684;23.330;2023-02-21T07:25:39;95250.50;;;6.90;61.10
78459;BME280;67753;42.684;23.330;2023-02-21T07:27:41;95242.47;;;6.99;61.07
78459;BME280;67753;42.684;23.330;2023-02-21T07:29:45;95247.28;;;7.06;61.01
78459;BME280;67753;42.684;23.330;2023-02-21T07:31:47;95247.16;;;7.02;61.07
78459;BME280;67753;42.684;23.330;2023-02-21T07:33:48;95239.94;;;7.03;61.56
78459;BME280;67753;42.684;23.330;2023-02-21T07:35:50;95241.97;;;7.06;61.75
78459;BME280;67753;42.684;23.330;2023-02-21T07:37:52;95237.44;;;7.18;61.10
78459;BME280;67753;42.684;23.330;2023-02-21T07:39:54;95242.47;;;7.20;60.92
78459;BME280;67753;42.684;23.330;2023-02-21T07:41:57;95227.69;;;7.23;60.50
78459;BME280;67753;42.684;23.330;2023-02-21T07:43:59;95228.94;;;7.25;60.46
78459;BME280;67753;42.684;23.330;2023-02-21T07:46:01;95229.19;;;7.32;60.59
78459;BME280;67753;42.684;23.330;2023-02-21T07:48:03;95231.84;;;7.32;60.53
78459;BME280;67753;42.684;23.330;2023-02-21T07:50:05;95230.03;;;7.45;59.81
78459;BME280;67753;42.684;23.330;2023-02-21T07:52:07;95229.13;;;7.41;60.46
78459;BME280;67753;42.684;23.330;2023-02-21T07:54:09;95229.69;;;7.47;59.92
78459;BME280;67753;42.684;23.330;2023-02-21T07:56:11;95225.13;;;7.47;60.23
78459;BME280;67753;42.684;23.330;2023-02-21T07:58:16;95218.25;;;7.46;59.98
78459;BME280;67753;42.684;23.330;2023-02-21T08:00:18;95225.91;;;7.48;60.06
78459;BME280;67753;42.684;23.330;2023-02-21T08:02:24;95222.94;;;7.49;59.90
78459;BME280;67753;42.684;23.330;2023-02-21T08:04:27;95224.69;;;7.45;60.10
78459;BME280;67753;42.684;23.330;2023-02-21T08:06:30;95218.38;;;7.50;59.58
78459;BME280;67753;42.684;23.330;2023-02-21T08:08:32;95220.84;;;7.55;59.72
78459;BME280;67753;42.684;23.330;2023-02-21T08:10:34;95221.41;;;7.60;59.38
78459;BME280;67753;42.684;23.330;2023-02-21T08:12:36;95214.31;;;7.64;59.93
78459;BME280;67753;42.684;23.330;2023-02-21T08:14:40;95213.88;;;7.75;59.08
78459;BME280;67753;42.684;23.330;2023-02-21T08:16:42;95215.81;;;7.86;59.37
78459;BME280;67753;42.684;23.330;2023-02-21T08:18:46;95211.38;;;7.90;59.11
78459;BME280;67753;42.684;23.330;2023-02-21T08:20:49;95208.28;;;8.01;58.96
78459;BME280;67753;42.684;23.330;2023-02-21T08:22:52;95220.28;;;8.07;58.48
78459;BME280;67753;42.684;23.330;2023-02-21T08:24:56;95211.50;;;8.18;58.23
78459;BME280;67753;42.684;23.330;2023-02-21T08:26:57;95214.09;;;8.39;58.21
78459;BME280;67753;42.684;23.330;2023-02-21T08:29:02;95217.78;;;8.47;57.39
78459;BME280;67753;42.684;23.330;2023-02-21T08:31:05;95203.41;;;8.52;57.75
78459;BME280;67753;42.684;23.330;2023-02-21T08:33:07;95208.31;;;8.62;57.40
78459;BME280;67753;42.684;23.330;2023-02-21T08:35:13;95191.81;;;8.72;56.93
78459;BME280;67753;42.684;23.330;2023-02-21T08:37:15;95199.59;;;8.77;56.90
78459;BME280;67753;42.684;23.330;2023-02-21T08:39:19;95199.78;;;8.84;56.93
78459;BME280;67753;42.684;23.330;2023-02-21T08:41:22;95199.78;;;8.84;56.56
78459;BME280;67753;42.684;23.330;2023-02-21T08:43:25;95196.09;;;8.89;56.71
78459;BME280;67753;42.684;23.330;2023-02-21T08:45:28;95195.09;;;8.93;56.61
78459;BME280;67753;42.684;23.330;2023-02-21T08:47:34;95197.56;;;8.86;56.62
78459;BME280;67753;42.684;23.330;2023-02-21T08:49:36;95186.22;;;8.89;56.52
78459;BME280;67753;42.684;23.330;2023-02-21T08:51:39;95193.22;;;8.94;56.34
78459;BME280;67753;42.684;23.330;2023-02-21T08:53:42;95199.09;;;9.00;56.05
78459;BME280;67753;42.684;23.330;2023-02-21T08:55:43;95187.63;;;8.99;55.93
78459;BME280;67753;42.684;23.330;2023-02-21T08:57:47;95186.41;;;8.96;56.13
78459;BME280;67753;42.684;23.330;2023-02-21T08:59:49;95186.28;;;8.93;56.30
78459;BME280;67753;42.684;23.330;2023-02-21T09:01:51;95185.09;;;8.90;56.69
78459;BME280;67753;42.684;23.330;2023-02-21T09:03:54;95182.97;;;8.96;56.61
78459;BME280;67753;42.684;23.330;2023-02-21T09:05:57;95182.81;;;9.05;56.34
78459;BME280;67753;42.684;23.330;2023-02-21T09:08:00;95184.38;;;9.06;56.61
78459;BME280;67753;42.684;23.330;2023-02-21T09:10:02;95184.47;;;9.09;56.77
78459;BME280;67753;42.684;23.330;2023-02-21T09:12:05;95183.88;;;9.16;55.99
78459;BME280;67753;42.684;23.330;2023-02-21T09:14:08;95174.19;;;9.24;56.11
78459;BME280;67753;42.684;23.330;2023-02-21T09:16:11;95187.19;;;9.25;55.78
78459;BME280;67753;42.684;23.330;2023-02-21T09:18:13;95182.06;;;9.32;55.49
78459;BME280;67753;42.684;23.330;2023-02-21T09:20:19;95170.63;;;9.63;54.69
78459;BME280;67753;42.684;23.330;2023-02-21T09:22:21;95174.91;;;9.80;54.22
78459;BME280;67753;42.684;23.330;2023-02-21T09:24:26;95179.13;;;9.81;54.43
78459;BME280;67753;42.684;23.330;2023-02-21T09:26:28;95169.03;;;9.90;53.76
78459;BME280;67753;42.684;23.330;2023-02-21T09:28:32;95169.47;;;10.08;52.99
78459;BME280;67753;42.684;23.330;2023-02-21T09:30:34;95177.06;;;10.06;54.06
78459;BME280;67753;42.684;23.330;2023-02-21T09:32:36;95174.19;;;10.15;53.55
78459;BME280;67753;42.684;23.330;2023-02-21T09:34:39;95170.25;;;10.40;52.14
78459;BME280;67753;42.684;23.330;2023-02-21T09:36:42;95167.53;;;10.56;52.18
78459;BME280;67753;42.684;23.330;2023-02-21T09:38:44;95155.00;;;10.60;52.84
78459;BME280;67753;42.684;23.330;2023-02-21T09:40:49;95153.94;;;10.65;51.88
78459;BME280;67753;42.684;23.330;2023-02-21T09:42:53;95156.22;;;10.82;51.03
78459;BME280;67753;42.684;23.330;2023-02-21T09:44:55;95148.41;;;10.93;51.71
78459;BME280;67753;42.684;23.330;2023-02-21T09:46:59;95151.56;;;10.98;51.64
78459;BME280;67753;42.684;23.330;2023-02-21T09:49:06;95145.72;;;11.12;51.35
78459;BME280;67753;42.684;23.330;2023-02-21T09:51:12;95135.47;;;11.37;50.28
78459;BME280;67753;42.684;23.330;2023-02-21T09:53:25;95139.03;;;11.64;49.83
78459;BME280;67753;42.684;23.330;2023-02-21T09:55:30;95135.16;;;12.08;47.21
78459;BME280;67753;42.684;23.330;2023-02-21T09:57:34;95138.00;;;13.69;45.69
78459;BME280;67753;42.684;23.330;2023-02-21T09:59:36;95148.81;;;17.20;38.94
78459;BME280;67753;42.684;23.330;2023-02-21T10:01:49;95159.69;;;18.90;35.84
78459;BME280;67753;42.684;23.330;2023-02-21T10:04:05;95155.66;;;20.75;33.23
78459;BME280;67753;42.684;23.330;2023-02-21T10:06:22;95152.84;;;21.22;32.30
78459;BME280;67753;42.684;23.330;2023-02-21T10:08:36;95162.78;;;21.72;31.20
78459;BME280;67753;42.684;23.330;2023-02-21T10:10:43;95153.78;;;21.91;31.06
78459;BME280;67753;42.684;23.330;2023-02-21T10:12:54;95146.44;;;20.68;32.48
78459;BME280;67753;42.684;23.330;2023-02-21T10:15:24;95135.00;;;20.03;33.64
78459;BME280;67753;42.684;23.330;2023-02-21T10:17:34;95124.47;;;17.93;36.67
78459;BME280;67753;42.684;23.330;2023-02-21T10:19:41;95116.84;;;16.57;38.95
78459;BME280;67753;42.684;23.330;2023-02-21T10:21:45;95112.28;;;16.04;39.89
78459;BME280;67753;42.684;23.330;2023-02-21T10:23:50;95101.06;;;15.81;40.51
78459;BME280;67753;42.684;23.330;2023-02-21T10:26:01;95098.25;;;15.52;40.15
78459;BME280;67753;42.684;23.330;2023-02-21T10:28:07;95095.94;;;15.40;40.88
78459;BME280;67753;42.684;23.330;2023-02-21T10:30:19;95095.91;;;15.33;40.42
78459;BME280;67753;42.684;23.330;2023-02-21T10:32:25;95097.03;;;15.28;39.53
78459;BME280;67753;42.684;23.330;2023-02-21T10:34:29;95085.84;;;15.23;39.00
78459;BME280;67753;42.684;23.330;2023-02-21T10:36:33;95083.59;;;15.39;37.32
78459;BME280;67753;42.684;23.330;2023-02-21T10:38:36;95088.25;;;15.56;35.25
78459;BME280;67753;42.684;23.330;2023-02-21T10:40:42;95078.28;;;15.68;34.47
78459;BME280;67753;42.684;23.330;2023-02-21T10:42:48;95085.22;;;15.87;32.77
78459;BME280;67753;42.684;23.330;2023-02-21T10:44:54;95073.63;;;15.79;31.89
78459;BME280;67753;42.684;23.330;2023-02-21T10:47:00;95068.22;;;15.90;32.37
78459;BME280;67753;42.684;23.330;2023-02-21T10:49:19;95057.41;;;15.93;31.76
78459;BME280;67753;42.684;23.330;2023-02-21T10:51:29;95066.69;;;15.99;31.29
78459;BME280;67753;42.684;23.330;2023-02-21T10:53:34;95060.03;;;16.57;33.17
78459;BME280;67753;42.684;23.330;2023-02-21T10:55:36;95065.03;;;16.77;33.71
78459;BME280;67753;42.684;23.330;2023-02-21T10:57:41;95044.84;;;16.99;33.78
78459;BME280;67753;42.684;23.330;2023-02-21T10:59:47;95045.72;;;16.60;31.47
78459;BME280;67753;42.684;23.330;2023-02-21T11:01:49;95044.19;;;16.59;31.23
78459;BME280;67753;42.684;23.330;2023-02-21T11:03:54;95033.44;;;16.38;31.17
78459;BME280;67753;42.684;23.330;2023-02-21T11:05:57;95038.03;;;16.48;31.10
78459;BME280;67753;42.684;23.330;2023-02-21T11:08:04;95041.84;;;16.65;31.12
78459;BME280;67753;42.684;23.330;2023-02-21T11:10:26;95024.88;;;16.54;30.96
78459;BME280;67753;42.684;23.330;2023-02-21T11:12:28;95041.06;;;16.68;31.35
78459;BME280;67753;42.684;23.330;2023-02-21T11:14:33;95027.59;;;16.50;30.90
78459;BME280;67753;42.684;23.330;2023-02-21T11:16:35;95019.44;;;16.72;31.04
78459;BME280;67753;42.684;23.330;2023-02-21T11:18:37;95019.44;;;16.72;31.38
78459;BME280;67753;42.684;23.330;2023-02-21T11:20:40;95017.78;;;16.99;30.38
78459;BME280;67753;42.684;23.330;2023-02-21T11:22:43;95012.03;;;16.83;30.53